Time;durP1;ratioP1;P1;durP2;ratioP2;P2;SDS_P1;SDS_P2;PMS_P1;PMS_P2;Temp;Humidity;BMP_temperature;BMP_pressure;BME280_temperature;BME280_humidity;BME280_pressure;Samples;Min_cycle;Max_cycle;Signal;HPM_P1;HPM_P2
2021/06/28 00:01:29;;;;;;;13.27;10.82;;;15.00;99.90;;;;;;5071905;28;20050;-67
2021/06/28 00:03:55;;;;;;;10.98;9.50;;;15.00;99.90;;;;;;5069991;28;20045;-67
2021/06/28 00:06:21;;;;;;;14.15;11.07;;;14.90;99.90;;;;;;5071597;28;20033;-67
2021/06/28 00:08:47;;;;;;;11.55;10.32;;;14.80;99.90;;;;;;5071298;28;20459;-67
2021/06/28 00:11:13;;;;;;;12.25;11.05;;;14.80;99.90;;;;;;5072095;28;20064;-67
2021/06/28 00:13:43;;;;;;;11.65;10.18;;;14.80;99.90;;;;;;5046056;28;20041;-67
2021/06/28 00:16:10;;;;;;;12.25;11.05;;;14.90;99.90;;;;;;5051860;28;20524;-67
2021/06/28 00:18:36;;;;;;;11.13;10.02;;;14.80;99.90;;;;;;5060110;28;20024;-67
2021/06/28 00:21:04;;;;;;;11.77;10.57;;;14.90;99.90;;;;;;5070903;28;20059;-67
2021/06/28 00:23:30;;;;;;;11.27;10.07;;;14.90;99.90;;;;;;5071566;28;20079;-67
2021/06/28 00:25:55;;;;;;;11.27;10.15;;;14.90;99.90;;;;;;5071010;28;20478;-67
2021/06/28 00:28:22;;;;;;;14.18;10.52;;;14.90;99.90;;;;;;5071430;28;20037;-67
2021/06/28 00:30:48;;;;;;;11.02;9.70;;;14.90;99.90;;;;;;5071622;28;20058;-67
2021/06/28 00:33:16;;;;;;;12.48;9.95;;;14.90;99.90;;;;;;5071348;28;20518;-67
2021/06/28 00:35:43;;;;;;;11.38;10.25;;;14.90;99.90;;;;;;5069693;28;20421;-67
2021/06/28 00:38:09;;;;;;;11.40;9.63;;;14.90;99.90;;;;;;5067108;28;20040;-67
2021/06/28 00:40:36;;;;;;;13.68;10.73;;;14.90;99.90;;;;;;5071529;28;20452;-67
2021/06/28 00:43:03;;;;;;;11.57;10.38;;;14.90;99.90;;;;;;5067391;28;20056;-67
2021/06/28 00:45:36;;;;;;;11.60;9.55;;;14.90;99.90;;;;;;5071592;28;20455;-67
2021/06/28 00:48:07;;;;;;;12.35;10.27;;;14.80;99.90;;;;;;5071246;28;20038;-67
2021/06/28 00:50:36;;;;;;;14.13;10.30;;;14.80;99.90;;;;;;5051379;28;20045;-67
2021/06/28 00:53:09;;;;;;;11.68;9.90;;;14.80;99.90;;;;;;5054269;28;20094;-67
2021/06/28 00:55:36;;;;;;;12.00;9.88;;;14.80;99.90;;;;;;5070361;28;20076;-67
2021/06/28 00:58:02;;;;;;;13.35;10.68;;;14.70;99.90;;;;;;5070026;28;20115;-67
2021/06/28 01:00:29;;;;;;;13.38;10.15;;;14.70;99.90;;;;;;5070817;28;20040;-67
2021/06/28 01:02:56;;;;;;;12.43;10.25;;;14.70;99.90;;;;;;5071156;28;20075;-67
2021/06/28 01:05:25;;;;;;;12.57;10.15;;;14.70;99.90;;;;;;5070961;28;20045;-67
2021/06/28 01:07:51;;;;;;;14.57;9.98;;;14.80;99.90;;;;;;5053154;28;20513;-67
2021/06/28 01:10:18;;;;;;;11.57;9.95;;;14.70;99.90;;;;;;5070901;28;20040;-67
2021/06/28 01:12:47;;;;;;;15.07;10.32;;;14.70;99.90;;;;;;5070027;28;20367;-67
2021/06/28 01:15:14;;;;;;;14.00;10.45;;;14.60;99.90;;;;;;5070868;28;20478;-67
2021/06/28 01:17:40;;;;;;;12.57;10.63;;;14.60;99.90;;;;;;5071174;28;20094;-67
2021/06/28 01:20:13;;;;;;;14.10;10.57;;;14.60;99.90;;;;;;5070719;28;20464;-67
2021/06/28 01:22:42;;;;;;;14.32;10.25;;;14.60;99.90;;;;;;5071256;28;20036;-67
2021/06/28 01:25:11;;;;;;;13.02;10.32;;;14.60;99.90;;;;;;5070413;28;20061;-67
2021/06/28 01:27:38;;;;;;;11.95;10.40;;;14.60;99.90;;;;;;5069826;28;20040;-67
2021/06/28 01:30:07;;;;;;;12.50;10.45;;;14.60;99.90;;;;;;5052712;28;20496;-67
2021/06/28 01:32:33;;;;;;;12.90;10.82;;;14.60;99.90;;;;;;5071002;28;20128;-67
2021/06/28 01:34:59;;;;;;;12.25;9.98;;;14.60;99.90;;;;;;5070350;28;20748;-67
2021/06/28 01:37:27;;;;;;;11.90;10.50;;;14.60;99.90;;;;;;5070554;28;20048;-67
2021/06/28 01:39:58;;;;;;;13.98;9.68;;;14.60;99.90;;;;;;5074533;28;20064;-67
2021/06/28 01:42:26;;;;;;;14.10;10.38;;;14.60;99.90;;;;;;5073715;28;20091;-67
2021/06/28 01:44:53;;;;;;;11.30;10.02;;;14.60;99.90;;;;;;5074466;28;20064;-67
2021/06/28 01:47:20;;;;;;;12.25;10.63;;;14.60;99.90;;;;;;5074800;28;20042;-67
2021/06/28 01:49:45;;;;;;;13.13;10.85;;;14.60;99.90;;;;;;5069745;28;20111;-67
2021/06/28 01:52:12;;;;;;;14.30;10.85;;;14.60;99.90;;;;;;5060662;28;20131;-67
2021/06/28 01:54:38;;;;;;;15.90;10.50;;;14.60;99.90;;;;;;5068720;28;20030;-67
2021/06/28 01:57:04;;;;;;;11.95;10.73;;;14.60;99.90;;;;;;5071826;28;20116;-68
2021/06/28 01:59:33;;;;;;;12.38;10.20;;;14.60;99.90;;;;;;5072231;28;20131;-67
2021/06/28 02:02:00;;;;;;;12.30;9.88;;;14.70;99.90;;;;;;5072608;28;20039;-67
2021/06/28 02:04:27;;;;;;;13.05;10.88;;;14.70;99.90;;;;;;5073440;28;20456;-67
2021/06/28 02:06:54;;;;;;;13.60;11.07;;;14.70;99.90;;;;;;5074133;28;20055;-67
2021/06/28 02:09:20;;;;;;;14.07;10.35;;;14.80;99.90;;;;;;5055956;28;20136;-67
2021/06/28 02:11:47;;;;;;;11.63;10.40;;;14.80;99.90;;;;;;5074579;28;20115;-67
2021/06/28 02:14:13;;;;;;;13.23;10.00;;;14.80;99.90;;;;;;5073879;28;20508;-67
2021/06/28 02:16:43;;;;;;;15.25;10.13;;;14.90;99.90;;;;;;5074345;28;20116;-67
2021/06/28 02:19:08;;;;;;;12.13;10.07;;;14.90;99.90;;;;;;5072605;28;20036;-67
2021/06/28 02:21:34;;;;;;;14.02;9.80;;;14.90;99.90;;;;;;5074158;28;20063;-67
2021/06/28 02:24:00;;;;;;;13.10;9.90;;;15.00;99.90;;;;;;5055841;28;20107;-67
2021/06/28 02:26:26;;;;;;;12.02;8.63;;;15.00;99.90;;;;;;5073619;28;20486;-67
2021/06/28 02:28:52;;;;;;;12.55;9.32;;;15.10;99.90;;;;;;5073870;28;20050;-67
2021/06/28 02:31:20;;;;;;;10.82;9.32;;;15.10;99.90;;;;;;5055934;28;20051;-67
2021/06/28 02:33:46;;;;;;;12.85;9.70;;;15.10;99.90;;;;;;5069752;28;20044;-67
2021/06/28 02:36:12;;;;;;;12.70;10.32;;;15.00;99.90;;;;;;5073385;28;20402;-67
2021/06/28 02:38:39;;;;;;;12.18;9.77;;;15.00;99.90;;;;;;5073903;28;20037;-67
2021/06/28 02:41:06;;;;;;;13.38;9.48;;;15.00;99.90;;;;;;5073614;28;20033;-67
2021/06/28 02:43:33;;;;;;;14.05;10.45;;;15.00;99.90;;;;;;5073582;28;20032;-67
2021/06/28 02:45:59;;;;;;;11.73;9.85;;;15.00;99.90;;;;;;5073669;28;20036;-67
2021/06/28 02:48:25;;;;;;;11.73;9.80;;;14.90;99.90;;;;;;5073693;28;20180;-67
2021/06/28 02:50:51;;;;;;;13.18;10.18;;;14.90;99.90;;;;;;5073085;28;20044;-67
2021/06/28 02:53:17;;;;;;;13.70;10.25;;;14.90;99.90;;;;;;5054610;28;20433;-67
2021/06/28 02:55:47;;;;;;;15.57;10.65;;;14.90;99.90;;;;;;5072820;28;20389;-67
2021/06/28 02:58:14;;;;;;;15.15;10.10;;;14.90;99.90;;;;;;5089715;28;20067;-67
2021/06/28 03:00:40;;;;;;;12.88;10.02;;;14.90;99.90;;;;;;5071913;28;20047;-67
2021/06/28 03:03:06;;;;;;;11.48;10.27;;;14.90;99.90;;;;;;5073294;28;20040;-67
2021/06/28 03:05:32;;;;;;;12.65;9.98;;;15.00;99.90;;;;;;5073145;28;20060;-67
2021/06/28 03:07:58;;;;;;;12.00;10.80;;;15.00;99.90;;;;;;5072125;28;20033;-67
2021/06/28 03:10:24;;;;;;;15.88;11.30;;;15.00;99.90;;;;;;5072941;28;20116;-68
2021/06/28 03:12:50;;;;;;;12.90;10.40;;;15.00;99.90;;;;;;5073175;28;20378;-67
2021/06/28 03:15:18;;;;;;;14.00;10.88;;;15.00;99.90;;;;;;5072810;28;20040;-67
2021/06/28 03:17:44;;;;;;;11.60;10.40;;;15.00;99.90;;;;;;5073052;28;20058;-67
2021/06/28 03:20:12;;;;;;;13.20;10.35;;;15.00;99.90;;;;;;5054851;28;20482;-67
2021/06/28 03:22:39;;;;;;;17.90;10.90;;;15.00;99.90;;;;;;5072954;28;20071;-67
2021/06/28 03:25:08;;;;;;;12.23;10.73;;;15.00;99.90;;;;;;5072276;28;20044;-67
2021/06/28 03:27:34;;;;;;;13.77;11.50;;;15.00;99.90;;;;;;5071506;28;20500;-67
2021/06/28 03:30:02;;;;;;;14.45;10.75;;;15.10;99.90;;;;;;5072622;28;20037;-67
2021/06/28 03:32:28;;;;;;;14.70;10.98;;;15.10;99.90;;;;;;5072889;28;20044;-67
2021/06/28 03:34:54;;;;;;;14.68;11.10;;;15.20;99.90;;;;;;5054483;28;20036;-67
2021/06/28 03:37:19;;;;;;;16.52;10.93;;;15.20;99.90;;;;;;5057759;28;20041;-67
2021/06/28 03:39:45;;;;;;;12.45;10.05;;;15.30;99.90;;;;;;5052901;28;20111;-67
2021/06/28 03:42:11;;;;;;;12.32;10.40;;;15.40;99.90;;;;;;5071205;28;20110;-67
2021/06/28 03:44:37;;;;;;;13.93;10.52;;;15.50;99.90;;;;;;5071174;28;20763;-67
2021/06/28 03:47:03;;;;;;;11.45;10.25;;;15.60;99.90;;;;;;5072553;28;20052;-66
2021/06/28 03:49:28;;;;;;;11.73;10.52;;;15.70;99.90;;;;;;5072344;28;20047;-67
2021/06/28 03:51:54;;;;;;;12.80;11.23;;;15.70;99.90;;;;;;5072033;28;20070;-68
2021/06/28 03:54:20;;;;;;;12.70;10.52;;;15.90;99.90;;;;;;5070286;28;20097;-68
2021/06/28 03:56:46;;;;;;;13.98;10.75;;;15.80;99.90;;;;;;5072003;28;20666;-68
2021/06/28 03:59:12;;;;;;;11.77;9.32;;;15.90;99.90;;;;;;5071761;28;20036;-68
2021/06/28 04:01:38;;;;;;;11.32;10.13;;;16.00;99.90;;;;;;5069930;28;20523;-68
2021/06/28 04:04:03;;;;;;;11.02;9.63;;;16.00;99.90;;;;;;5072093;28;20040;-68
2021/06/28 04:06:30;;;;;;;13.40;10.25;;;16.20;99.90;;;;;;5071922;28;20032;-68
2021/06/28 04:08:56;;;;;;;11.75;10.30;;;16.10;99.90;;;;;;5071934;28;20062;-67
2021/06/28 04:11:22;;;;;;;11.23;10.10;;;16.20;99.90;;;;;;5071797;28;20041;-68
2021/06/28 04:13:47;;;;;;;12.13;10.18;;;16.30;99.90;;;;;;5070754;28;20048;-68
2021/06/28 04:16:13;;;;;;;10.90;9.77;;;16.30;99.90;;;;;;5071627;28;20123;-68
2021/06/28 04:18:39;;;;;;;13.15;10.43;;;16.30;99.90;;;;;;5053718;28;20047;-68
2021/06/28 04:21:05;;;;;;;11.00;9.90;;;16.40;99.90;;;;;;5071705;28;20036;-68
2021/06/28 04:23:31;;;;;;;12.25;10.00;;;16.40;99.90;;;;;;5053767;28;20051;-68
2021/06/28 04:25:57;;;;;;;12.63;9.70;;;16.30;99.90;;;;;;5070826;28;20052;-67
2021/06/28 04:28:23;;;;;;;13.90;10.43;;;16.30;99.90;;;;;;5071849;28;20044;-68
2021/06/28 04:30:48;;;;;;;13.30;10.63;;;16.20;99.90;;;;;;5070389;28;20039;-68
2021/06/28 04:33:14;;;;;;;11.02;9.80;;;16.20;99.90;;;;;;5071594;28;20052;-68
2021/06/28 04:35:40;;;;;;;11.07;9.98;;;16.20;99.90;;;;;;5070243;28;20602;-68
2021/06/28 04:38:06;;;;;;;12.77;10.45;;;16.20;99.90;;;;;;5051657;28;20467;-68
2021/06/28 04:40:32;;;;;;;14.38;10.02;;;16.30;99.90;;;;;;5056929;28;20037;-68
2021/06/28 04:42:58;;;;;;;11.43;10.32;;;16.30;99.90;;;;;;5069904;28;20095;-67
2021/06/28 04:45:28;;;;;;;11.43;10.18;;;16.30;99.90;;;;;;5061981;28;20040;-68
2021/06/28 04:47:53;;;;;;;11.25;9.70;;;16.40;99.90;;;;;;5071377;28;20048;-68
2021/06/28 04:50:22;;;;;;;12.23;10.93;;;16.40;99.90;;;;;;5066457;28;20033;-68
2021/06/28 04:52:48;;;;;;;13.00;11.02;;;16.30;99.90;;;;;;5071201;28;20047;-68
2021/06/28 04:55:15;;;;;;;13.25;11.00;;;16.20;99.90;;;;;;5059648;28;20069;-68
2021/06/28 04:57:41;;;;;;;13.10;11.05;;;16.20;99.90;;;;;;5084636;28;20043;-68
2021/06/28 05:00:10;;;;;;;12.35;10.80;;;16.20;99.90;;;;;;5052478;28;20041;-69
2021/06/28 05:02:36;;;;;;;13.52;11.27;;;16.10;99.90;;;;;;5066224;28;20397;-68
2021/06/28 05:05:04;;;;;;;13.68;11.15;;;16.10;99.90;;;;;;5067962;28;20036;-68
2021/06/28 05:07:29;;;;;;;11.68;10.48;;;16.20;99.90;;;;;;5070975;28;20386;-68
2021/06/28 05:09:56;;;;;;;12.75;10.82;;;16.20;99.90;;;;;;5070633;28;20535;-68
2021/06/28 05:12:22;;;;;;;10.98;9.25;;;16.20;99.90;;;;;;5071029;28;20044;-67
2021/06/28 05:14:48;;;;;;;15.10;10.65;;;16.30;99.90;;;;;;5070633;28;20032;-68
2021/06/28 05:17:13;;;;;;;14.10;10.30;;;16.30;99.90;;;;;;5070978;28;20044;-68
2021/06/28 05:19:39;;;;;;;11.05;10.10;;;16.40;99.90;;;;;;5069326;28;20520;-68
2021/06/28 05:22:05;;;;;;;15.73;10.23;;;16.40;99.90;;;;;;5052958;28;20772;-67
2021/06/28 05:24:31;;;;;;;12.45;10.50;;;16.40;99.90;;;;;;5070332;28;20044;-68
2021/06/28 05:26:57;;;;;;;12.98;10.48;;;16.50;99.90;;;;;;5070979;28;20040;-68
2021/06/28 05:29:23;;;;;;;11.80;10.52;;;16.50;99.90;;;;;;5070460;28;20544;-68
2021/06/28 05:31:48;;;;;;;12.07;9.85;;;16.50;99.90;;;;;;5070552;28;20809;-68
2021/06/28 05:34:14;;;;;;;12.20;10.82;;;16.60;99.90;;;;;;5064981;28;20650;-68
2021/06/28 05:36:40;;;;;;;11.80;10.50;;;16.60;99.90;;;;;;5068915;28;20094;-68
2021/06/28 05:39:05;;;;;;;12.18;10.75;;;16.60;99.90;;;;;;5070677;28;20111;-68
2021/06/28 05:41:32;;;;;;;12.52;10.93;;;16.60;99.90;;;;;;5070439;28;20047;-68
2021/06/28 05:43:57;;;;;;;11.23;10.07;;;16.60;99.90;;;;;;5052047;28;20045;-68
2021/06/28 05:46:23;;;;;;;11.50;10.38;;;16.60;99.90;;;;;;5065390;28;20044;-68
2021/06/28 05:48:49;;;;;;;11.93;10.73;;;16.80;99.90;;;;;;5053333;28;20076;-68
2021/06/28 05:51:18;;;;;;;11.45;10.23;;;16.70;99.90;;;;;;5066424;28;20056;-68
2021/06/28 05:53:44;;;;;;;11.48;9.55;;;16.90;99.90;;;;;;5070805;28;20094;-68
2021/06/28 05:56:10;;;;;;;10.50;9.45;;;17.00;99.90;;;;;;5070303;28;20111;-68
2021/06/28 05:58:36;;;;;;;10.65;9.57;;;17.10;99.90;;;;;;5069665;28;20127;-68
2021/06/28 06:01:02;;;;;;;10.27;9.02;;;17.20;99.90;;;;;;5066117;28;20071;-69
2021/06/28 06:03:28;;;;;;;11.18;9.60;;;17.40;99.90;;;;;;5068390;28;20422;-69
2021/06/28 06:05:54;;;;;;;9.70;8.73;;;17.40;99.90;;;;;;5069389;28;20044;-70
2021/06/28 06:08:24;;;;;;;10.07;9.18;;;17.60;99.90;;;;;;5065759;28;20059;-69
2021/06/28 06:10:55;;;;;;;12.02;9.88;;;17.70;99.90;;;;;;5068079;28;20037;-68
2021/06/28 06:13:21;;;;;;;10.75;9.70;;;17.90;99.90;;;;;;5070457;28;20051;-68
2021/06/28 06:15:47;;;;;;;9.88;8.98;;;18.00;99.90;;;;;;5070446;28;20033;-68
2021/06/28 06:18:13;;;;;;;13.20;10.50;;;18.10;99.90;;;;;;5061569;28;20131;-68
2021/06/28 06:20:40;;;;;;;11.82;10.60;;;18.10;99.90;;;;;;5061454;28;20154;-68
2021/06/28 06:23:06;;;;;;;9.73;8.82;;;18.20;99.90;;;;;;5066553;28;20430;-68
2021/06/28 06:25:31;;;;;;;10.40;9.25;;;18.20;99.90;;;;;;5069344;28;20094;-68
2021/06/28 06:27:57;;;;;;;12.02;9.38;;;18.80;99.90;;;;;;5072711;28;20036;-68
2021/06/28 06:30:23;;;;;;;11.20;10.20;;;19.40;99.90;;;;;;5071265;28;20047;-68
2021/06/28 06:32:53;;;;;;;9.57;8.63;;;19.40;99.90;;;;;;5073771;28;20058;-68
2021/06/28 06:35:22;;;;;;;9.63;8.13;;;20.10;99.90;;;;;;5070012;28;20033;-68
2021/06/28 06:37:53;;;;;;;10.70;8.68;;;21.30;99.90;;;;;;5072872;28;20110;-68
2021/06/28 06:40:18;;;;;;;8.70;7.80;;;22.30;99.70;;;;;;5063343;28;20107;-69
2021/06/28 06:42:44;;;;;;;9.02;8.15;;;23.20;97.60;;;;;;5068687;28;20037;-69
2021/06/28 06:45:11;;;;;;;9.38;8.48;;;23.20;95.40;;;;;;5073523;28;20486;-69
2021/06/28 06:47:36;;;;;;;8.75;7.85;;;24.40;94.70;;;;;;5069047;28;20593;-68
2021/06/28 06:50:02;;;;;;;9.68;8.65;;;24.10;93.40;;;;;;5072287;28;20036;-69
2021/06/28 06:52:28;;;;;;;9.70;8.10;;;24.30;93.70;;;;;;5073493;28;20094;-68
2021/06/28 06:54:54;;;;;;;8.82;7.10;;;24.20;93.40;;;;;;5071026;28;20041;-68
2021/06/28 06:57:19;;;;;;;7.72;6.95;;;25.40;93.30;;;;;;5068160;28;20094;-68
2021/06/28 06:59:45;;;;;;;7.90;7.10;;;25.60;92.70;;;;;;5070669;28;20029;-66
2021/06/28 07:02:10;;;;;;;9.40;7.20;;;26.60;90.90;;;;;;5071686;28;20048;-66
2021/06/28 07:04:36;;;;;;;7.00;6.38;;;27.00;90.10;;;;;;5070766;28;20042;-69
2021/06/28 07:07:02;;;;;;;8.35;7.55;;;27.30;88.90;;;;;;5047815;28;20036;-68
2021/06/28 07:09:29;;;;;;;7.57;6.82;;;27.30;86.20;;;;;;5054172;28;20045;-69
2021/06/28 07:11:55;;;;;;;8.10;7.30;;;26.60;87.90;;;;;;5072784;28;20078;-69
2021/06/28 07:14:22;;;;;;;7.78;7.07;;;27.60;87.70;;;;;;5060681;28;20039;-69
2021/06/28 07:16:48;;;;;;;6.60;6.10;;;26.90;89.70;;;;;;5073039;28;20040;-69
2021/06/28 07:19:14;;;;;;;7.90;7.22;;;27.20;89.40;;;;;;5071229;28;20063;-69
2021/06/28 07:21:40;;;;;;;8.13;7.43;;;27.10;89.00;;;;;;5061763;28;20363;-70
2021/06/28 07:24:06;;;;;;;7.65;6.82;;;27.50;88.70;;;;;;5052420;28;20044;-71
2021/06/28 07:26:33;;;;;;;8.30;7.60;;;27.40;85.60;;;;;;5071142;28;20198;-66
2021/06/28 07:28:59;;;;;;;8.55;7.75;;;26.80;86.40;;;;;;5063988;28;20071;-66
2021/06/28 07:31:26;;;;;;;7.13;6.53;;;26.00;89.60;;;;;;5072552;28;20036;-66
2021/06/28 07:33:51;;;;;;;9.27;7.60;;;27.00;88.70;;;;;;5054723;28;20040;-66
2021/06/28 07:36:17;;;;;;;9.88;8.93;;;27.50;88.40;;;;;;5069713;28;20044;-66
2021/06/28 07:38:43;;;;;;;9.55;7.45;;;27.90;86.70;;;;;;5052711;28;20087;-66
2021/06/28 07:41:12;;;;;;;8.57;7.63;;;28.40;86.50;;;;;;5068280;22;20141;-68
2021/06/28 07:43:38;;;;;;;8.68;7.88;;;28.10;84.80;;;;;;5030225;28;20116;-67
2021/06/28 07:46:04;;;;;;;9.18;8.10;;;28.20;83.70;;;;;;5032174;28;20469;-68
2021/06/28 07:48:31;;;;;;;8.07;7.38;;;28.10;84.20;;;;;;5019597;28;20443;-68
2021/06/28 07:50:57;;;;;;;6.68;6.07;;;28.60;84.10;;;;;;5029851;28;20071;-68
2021/06/28 07:53:23;;;;;;;8.57;7.68;;;29.10;83.80;;;;;;5032513;28;20045;-68
2021/06/28 07:55:48;;;;;;;8.35;7.63;;;29.40;82.40;;;;;;5030351;28;20040;-68
2021/06/28 07:58:15;;;;;;;9.40;8.30;;;27.40;84.60;;;;;;5027770;28;20037;-68
2021/06/28 08:00:41;;;;;;;8.30;7.60;;;27.10;84.40;;;;;;5027859;28;20035;-68
2021/06/28 08:03:08;;;;;;;7.65;7.05;;;27.70;86.40;;;;;;5032932;28;20038;-69
2021/06/28 08:05:38;;;;;;;7.82;7.15;;;28.30;85.00;;;;;;5035993;28;20086;-68
2021/06/28 08:08:05;;;;;;;7.82;7.05;;;28.60;83.60;;;;;;5035351;28;20037;-68
2021/06/28 08:10:31;;;;;;;8.35;7.50;;;28.90;83.50;;;;;;5032336;28;20057;-68
2021/06/28 08:12:58;;;;;;;8.02;7.38;;;28.90;81.20;;;;;;5027753;28;20045;-68
2021/06/28 08:15:23;;;;;;;8.30;7.70;;;28.20;83.90;;;;;;5018143;28;20040;-69
2021/06/28 08:17:51;;;;;;;9.18;8.25;;;26.70;89.20;;;;;;5036111;28;20039;-68
2021/06/28 08:20:19;;;;;;;8.30;7.45;;;26.70;88.90;;;;;;5019517;28;20503;-69
2021/06/28 08:22:46;;;;;;;9.35;8.45;;;26.30;90.70;;;;;;5025422;28;20055;-70
2021/06/28 08:25:13;;;;;;;8.18;7.55;;;25.30;91.10;;;;;;5027202;28;20042;-69
2021/06/28 08:27:38;;;;;;;9.02;8.32;;;25.30;91.70;;;;;;5031122;28;20403;-69
2021/06/28 08:30:07;;;;;;;9.35;7.85;;;25.40;91.60;;;;;;5030810;28;20037;-70
2021/06/28 08:32:33;;;;;;;9.50;8.60;;;25.40;91.90;;;;;;5012400;28;20390;-69
2021/06/28 08:34:59;;;;;;;9.25;8.35;;;25.40;92.00;;;;;;5028909;28;20045;-70
2021/06/28 08:37:26;;;;;;;8.95;8.07;;;25.10;93.20;;;;;;5019149;28;20030;-69
2021/06/28 08:39:52;;;;;;;9.45;8.68;;;25.00;92.80;;;;;;5027014;28;20793;-69
2021/06/28 08:42:18;;;;;;;9.88;9.07;;;25.10;92.10;;;;;;5027456;28;20045;-69
2021/06/28 08:44:45;;;;;;;9.02;8.32;;;24.10;94.10;;;;;;5037834;28;20039;-69
2021/06/28 08:47:11;;;;;;;9.75;8.63;;;24.10;94.20;;;;;;5031324;28;20073;-70
2021/06/28 08:49:39;;;;;;;9.77;8.57;;;24.40;94.60;;;;;;5031242;28;20041;-69
2021/06/28 08:52:06;;;;;;;9.73;8.75;;;24.20;95.40;;;;;;5031554;28;20055;-70
2021/06/28 08:54:32;;;;;;;15.68;8.95;;;24.30;94.90;;;;;;5031027;28;20099;-69
2021/06/28 08:56:58;;;;;;;10.85;9.43;;;24.10;95.40;;;;;;5031285;28;20038;-69
2021/06/28 08:59:25;;;;;;;9.13;8.23;;;24.20;95.30;;;;;;5041693;28;20037;-70
2021/06/28 09:01:50;;;;;;;9.30;8.38;;;24.20;95.10;;;;;;5051279;28;20435;-70
2021/06/28 09:04:16;;;;;;;9.70;8.73;;;24.40;94.80;;;;;;5037205;28;20120;-69
2021/06/28 09:06:43;;;;;;;10.20;9.02;;;24.50;94.30;;;;;;5050041;28;20402;-68
2021/06/28 09:09:14;;;;;;;9.65;8.70;;;24.60;94.20;;;;;;5036318;28;20154;-69
2021/06/28 09:11:51;;;;;;;9.63;8.70;;;24.60;95.00;;;;;;5031320;28;20037;-69
2021/06/28 09:14:21;;;;;;;9.57;7.82;;;24.70;95.10;;;;;;5013155;28;20057;-68
2021/06/28 09:16:47;;;;;;;10.30;9.30;;;24.80;94.10;;;;;;5045693;28;20043;-69
2021/06/28 09:19:16;;;;;;;10.10;9.20;;;24.80;94.40;;;;;;5036330;28;20507;-69
2021/06/28 09:21:45;;;;;;;9.95;8.73;;;25.10;93.50;;;;;;5031090;28;20072;-68
2021/06/28 09:24:38;;;;;;;11.18;10.07;;;25.20;93.00;;;;;;5030727;28;20494;-69
2021/06/28 09:27:09;;;;;;;10.43;9.38;;;25.30;92.90;;;;;;5029927;28;20086;-70
2021/06/28 09:29:42;;;;;;;10.02;9.13;;;25.10;94.20;;;;;;5030569;28;20091;-68
2021/06/28 09:32:10;;;;;;;12.07;8.55;;;25.00;94.70;;;;;;5011386;28;20038;-67
2021/06/28 09:34:36;;;;;;;7.85;7.18;;;25.10;94.50;;;;;;5027708;28;20034;-67
2021/06/28 09:37:02;;;;;;;7.70;7.00;;;25.20;93.90;;;;;;5010397;28;20124;-68
2021/06/28 09:39:33;;;;;;;8.20;7.40;;;25.40;92.80;;;;;;5025137;28;20116;-68
2021/06/28 09:42:11;;;;;;;8.50;7.60;;;25.50;93.10;;;;;;5029290;28;20041;-68
2021/06/28 09:44:52;;;;;;;8.73;8.00;;;25.70;93.00;;;;;;5028427;28;20131;-68
2021/06/28 09:47:19;;;;;;;7.72;7.03;;;25.80;92.30;;;;;;5029689;28;20041;-68
2021/06/28 09:50:12;;;;;;;9.10;7.20;;;25.80;92.20;;;;;;5029595;28;20034;-69
2021/06/28 09:52:46;;;;;;;7.55;6.88;;;26.00;92.80;;;;;;5030377;28;20033;-68
2021/06/28 09:55:21;;;;;;;9.25;8.35;;;26.00;92.00;;;;;;5029467;28;20496;-69
2021/06/28 09:58:09;;;;;;;9.50;8.70;;;26.00;92.90;;;;;;5030453;28;20048;-69
2021/06/28 10:00:40;;;;;;;10.07;8.95;;;26.00;93.60;;;;;;5033217;28;20042;-69
2021/06/28 10:03:22;;;;;;;8.82;8.02;;;26.20;91.90;;;;;;5033640;28;20030;-69
2021/06/28 10:06:02;;;;;;;7.38;6.78;;;26.10;92.40;;;;;;5020344;28;20072;-68
2021/06/28 10:08:37;;;;;;;7.50;6.90;;;26.20;91.80;;;;;;5045091;28;20135;-68
2021/06/28 10:11:22;;;;;;;9.57;8.13;;;26.10;92.50;;;;;;5033854;28;20099;-69
2021/06/28 10:13:52;;;;;;;12.05;8.80;;;25.40;93.50;;;;;;5033217;28;20051;-69
2021/06/28 10:16:21;;;;;;;7.07;6.37;;;25.70;93.50;;;;;;5033129;28;20037;-69
2021/06/28 10:18:47;;;;;;;7.80;7.20;;;26.00;93.20;;;;;;5032638;28;20037;-69
2021/06/28 10:21:13;;;;;;;8.25;6.70;;;25.90;91.20;;;;;;5033854;28;20041;-69
2021/06/28 10:23:39;;;;;;;7.78;6.97;;;26.00;92.00;;;;;;5029854;28;20132;-69
2021/06/28 10:26:06;;;;;;;9.18;8.38;;;26.30;92.80;;;;;;5030689;28;20646;-69
2021/06/28 10:28:34;;;;;;;9.02;7.30;;;26.40;92.10;;;;;;5039916;28;20044;-69
2021/06/28 10:31:02;;;;;;;8.57;7.75;;;26.50;92.40;;;;;;5049961;28;20118;-70
2021/06/28 10:33:28;;;;;;;7.90;6.95;;;26.30;92.20;;;;;;5032695;28;20104;-69
2021/06/28 10:36:01;;;;;;;7.03;6.53;;;26.50;91.80;;;;;;5031968;28;20038;-69
2021/06/28 10:38:52;;;;;;;6.97;6.43;;;26.60;92.30;;;;;;5021054;28;20049;-70
2021/06/28 10:41:46;;;;;;;7.40;6.82;;;26.80;91.10;;;;;;5033514;28;20041;-70
2021/06/28 10:44:18;;;;;;;7.53;6.93;;;26.30;91.70;;;;;;5032723;28;20115;-69
2021/06/28 10:46:52;;;;;;;6.70;6.20;;;26.60;91.00;;;;;;5034485;28;20046;-69
2021/06/28 10:49:50;;;;;;;6.57;6.05;;;26.80;90.70;;;;;;5025889;28;20368;-69
2021/06/28 10:52:42;;;;;;;6.57;6.07;;;26.90;91.10;;;;;;5033066;28;20124;-69
2021/06/28 10:55:16;;;;;;;5.90;5.50;;;27.20;90.40;;;;;;5018961;28;20448;-69
2021/06/28 10:57:42;;;;;;;6.57;6.03;;;27.40;89.20;;;;;;5033500;28;20416;-70
2021/06/28 11:00:09;;;;;;;6.60;6.10;;;27.30;91.40;;;;;;5016091;28;20049;-69
2021/06/28 11:02:39;;;;;;;6.35;5.88;;;27.40;90.10;;;;;;5053559;28;20037;-70
2021/06/28 11:05:07;;;;;;;6.38;5.88;;;27.40;90.70;;;;;;5030671;28;20064;-70
2021/06/28 11:07:44;;;;;;;6.80;5.78;;;27.60;89.40;;;;;;5026172;28;20060;-69
2021/06/28 11:10:15;;;;;;;6.25;5.75;;;27.70;88.40;;;;;;5029356;28;20034;-69
2021/06/28 11:12:41;;;;;;;7.03;6.32;;;27.40;89.20;;;;;;5029651;28;20048;-68
2021/06/28 11:15:23;;;;;;;8.32;6.15;;;27.30;90.10;;;;;;5035791;28;20042;-69
2021/06/28 11:17:51;;;;;;;6.85;6.35;;;27.00;91.60;;;;;;5036165;28;20055;-69
2021/06/28 11:20:37;;;;;;;6.40;5.80;;;27.30;90.10;;;;;;5032155;28;20092;-68
2021/06/28 11:23:07;;;;;;;5.47;5.07;;;27.40;89.60;;;;;;5038574;28;20052;-71
2021/06/28 11:25:37;;;;;;;7.38;6.75;;;27.40;89.80;;;;;;5032934;28;20037;-71
2021/06/28 11:28:03;;;;;;;6.72;6.22;;;27.40;90.60;;;;;;5033027;28;20073;-73
2021/06/28 11:30:37;;;;;;;6.00;5.57;;;27.30;90.30;;;;;;5015145;28;20489;-73
2021/06/28 11:33:09;;;;;;;6.82;6.22;;;27.10;90.60;;;;;;5040254;28;20560;-71
2021/06/28 11:35:49;;;;;;;7.20;6.60;;;27.10;90.60;;;;;;5052859;28;20394;-70
2021/06/28 11:38:26;;;;;;;6.20;5.70;;;27.00;91.00;;;;;;5046346;28;20428;-71
2021/06/28 11:40:56;;;;;;;5.47;5.07;;;27.30;91.70;;;;;;5034511;28;20056;-71
2021/06/28 11:43:47;;;;;;;6.65;6.03;;;27.50;90.30;;;;;;5025752;28;20049;-71
2021/06/28 11:46:29;;;;;;;6.55;5.93;;;27.40;88.60;;;;;;5033093;28;20417;-71
2021/06/28 11:48:59;;;;;;;6.40;5.93;;;27.70;88.30;;;;;;5034820;28;20037;-71
2021/06/28 11:51:24;;;;;;;5.45;5.00;;;27.90;89.30;;;;;;5046425;28;20136;-71
2021/06/28 11:53:53;;;;;;;6.03;5.63;;;28.00;86.40;;;;;;5050320;28;20698;-71
2021/06/28 11:56:28;;;;;;;6.30;5.80;;;28.10;86.10;;;;;;5047935;28;20037;-71
2021/06/28 11:58:55;;;;;;;6.10;5.60;;;28.20;85.00;;;;;;5043235;28;20043;-71
2021/06/28 12:01:23;;;;;;;6.50;6.00;;;28.20;84.70;;;;;;5042308;28;20033;-71
2021/06/28 12:03:49;;;;;;;5.78;5.20;;;27.70;84.90;;;;;;5041104;28;20037;-71
2021/06/28 12:06:15;;;;;;;5.82;5.20;;;27.90;85.70;;;;;;5035778;28;20544;-71
2021/06/28 12:08:43;;;;;;;6.75;6.05;;;28.00;86.90;;;;;;5048582;28;20045;-71
2021/06/28 12:11:09;;;;;;;6.45;5.90;;;28.30;84.70;;;;;;5039642;28;20114;-71
2021/06/28 12:13:37;;;;;;;6.43;5.82;;;28.10;88.50;;;;;;5045720;28;20462;-71
2021/06/28 12:16:13;;;;;;;8.90;6.38;;;28.30;86.20;;;;;;5015618;28;20068;-71
2021/06/28 12:18:38;;;;;;;7.78;5.78;;;28.10;85.10;;;;;;5032321;28;20033;-72
2021/06/28 12:21:04;;;;;;;6.75;6.20;;;28.30;86.40;;;;;;5037598;28;20060;-72
2021/06/28 12:23:30;;;;;;;5.78;5.28;;;28.30;88.50;;;;;;5031352;28;20084;-72
2021/06/28 12:25:55;;;;;;;6.15;5.63;;;28.10;88.60;;;;;;5032019;28;20049;-72
2021/06/28 12:28:30;;;;;;;6.47;5.97;;;28.00;89.90;;;;;;5031928;28;20038;-71
2021/06/28 12:30:56;;;;;;;7.97;6.15;;;28.00;86.80;;;;;;5031973;28;20037;-72
2021/06/28 12:33:22;;;;;;;5.95;5.55;;;28.00;87.30;;;;;;5031677;28;20049;-72
2021/06/28 12:35:58;;;;;;;5.82;5.32;;;27.30;86.20;;;;;;5044503;28;20529;-72
2021/06/28 12:38:24;;;;;;;6.65;6.15;;;27.30;88.80;;;;;;5035839;28;20049;-72
2021/06/28 12:40:50;;;;;;;6.20;5.60;;;27.30;88.90;;;;;;5031585;28;20056;-72
2021/06/28 12:43:19;;;;;;;6.20;5.55;;;27.20;89.80;;;;;;5031533;28;20037;-72